createdAt,value
2017-12-19T00:00:32.252Z,23.80
2017-12-19T00:02:59.723Z,27.50
2017-12-19T00:05:27.186Z,21.37
2017-12-19T00:07:55.033Z,28.13
2017-12-19T00:10:26.240Z,27.13
2017-12-19T00:12:54.476Z,25.13
2017-12-19T00:15:22.071Z,28.13
2017-12-19T00:17:49.592Z,31.30
2017-12-19T00:20:17.087Z,24.20
2017-12-19T00:22:45.329Z,27.33
2017-12-19T00:25:15.579Z,23.40
2017-12-19T00:27:43.043Z,26.77
2017-12-19T00:30:10.553Z,22.30
2017-12-19T00:32:37.998Z,27.20
2017-12-19T00:35:05.474Z,25.07
2017-12-19T00:37:32.947Z,24.97
2017-12-19T00:40:00.403Z,24.07
2017-12-19T00:42:27.862Z,27.47
2017-12-19T00:44:56.090Z,28.37
2017-12-19T00:47:23.621Z,25.73
2017-12-19T00:49:51.099Z,27.50
2017-12-19T00:52:18.571Z,27.33
2017-12-19T00:54:46.071Z,26.10
2017-12-19T00:57:14.312Z,25.20
2017-12-19T00:59:41.791Z,24.40
2017-12-19T01:02:10.336Z,21.80
2017-12-19T01:04:37.883Z,22.93
2017-12-19T01:07:05.398Z,22.43
2017-12-19T01:09:33.724Z,25.60
2017-12-19T01:12:01.183Z,22.97
2017-12-19T01:14:28.644Z,23.87
2017-12-19T01:16:56.092Z,25.37
2017-12-19T01:19:23.562Z,22.87
2017-12-19T01:21:51.003Z,26.70
2017-12-19T01:24:18.482Z,29.40
2017-12-19T01:26:45.939Z,24.87
2017-12-19T01:29:13.401Z,25.90
2017-12-19T01:31:41.645Z,24.83
2017-12-19T01:34:09.111Z,25.73
2017-12-19T01:36:36.567Z,23.70
2017-12-19T01:39:04.034Z,27.90
2017-12-19T01:41:31.504Z,26.30
2017-12-19T01:43:58.980Z,26.10
2017-12-19T01:46:26.440Z,28.60
2017-12-19T01:48:54.700Z,29.80
2017-12-19T01:51:22.183Z,26.47
2017-12-19T01:53:49.674Z,26.43
2017-12-19T01:56:17.267Z,24.80
2017-12-19T01:58:44.781Z,29.90
2017-12-19T02:01:12.332Z,30.60
2017-12-19T02:03:39.806Z,31.50
2017-12-19T02:06:08.087Z,27.70
2017-12-19T02:08:35.539Z,30.80
2017-12-19T02:11:03.006Z,28.80
2017-12-19T02:13:30.458Z,26.43
2017-12-19T02:15:57.928Z,30.80
2017-12-19T02:18:25.430Z,32.47
2017-12-19T02:20:53.667Z,34.53
2017-12-19T02:23:21.178Z,30.30
2017-12-19T02:25:48.659Z,38.07
2017-12-19T02:28:16.128Z,35.97
2017-12-19T02:30:44.411Z,36.90
2017-12-19T02:33:11.904Z,32.33
2017-12-19T02:35:39.423Z,36.93
2017-12-19T02:38:06.890Z,34.27
2017-12-19T02:40:34.347Z,32.13
2017-12-19T02:43:13.879Z,34.00
2017-12-19T02:45:41.465Z,36.27
2017-12-19T02:48:09.759Z,40.27
2017-12-19T02:50:37.239Z,35.13
2017-12-19T02:53:04.744Z,33.77
2017-12-19T02:55:32.215Z,38.10
2017-12-19T02:58:00.524Z,34.53
2017-12-19T03:00:27.992Z,37.07
2017-12-19T03:02:55.472Z,42.30
2017-12-19T03:05:22.921Z,40.30
2017-12-19T03:07:50.379Z,32.93
2017-12-19T03:10:17.838Z,36.90
2017-12-19T03:12:45.292Z,35.53
2017-12-19T03:15:12.751Z,35.07
2017-12-19T03:17:40.208Z,35.83
2017-12-19T03:20:07.650Z,40.03
2017-12-19T03:22:35.108Z,36.37
2017-12-19T03:25:02.558Z,36.20
2017-12-19T03:27:30.049Z,36.50
2017-12-19T03:29:57.501Z,40.03
2017-12-19T03:32:25.883Z,34.97
2017-12-19T03:34:54.168Z,34.70
2017-12-19T03:37:22.759Z,36.63
2017-12-19T03:39:50.298Z,41.47
2017-12-19T03:42:18.597Z,38.80
2017-12-19T03:44:46.116Z,38.80
2017-12-19T03:47:13.588Z,40.77
2017-12-19T03:49:41.810Z,39.07
2017-12-19T03:52:09.267Z,40.60
2017-12-19T03:54:37.294Z,39.90
2017-12-19T03:57:05.612Z,40.17
2017-12-19T03:59:33.091Z,37.20
2017-12-19T04:02:00.559Z,40.57
2017-12-19T04:04:28.020Z,44.10
2017-12-19T04:06:55.482Z,41.20
2017-12-19T04:09:22.975Z,48.37
2017-12-19T04:11:50.449Z,43.07
2017-12-19T04:14:17.906Z,38.90
2017-12-19T04:16:45.397Z,40.00
2017-12-19T04:19:13.783Z,38.03
2017-12-19T04:21:41.247Z,42.90
2017-12-19T04:24:08.739Z,41.70
2017-12-19T04:26:36.212Z,43.80
2017-12-19T04:29:03.707Z,43.60
2017-12-19T04:31:31.177Z,46.40
2017-12-19T04:33:58.696Z,48.90
2017-12-19T04:36:26.203Z,43.13
2017-12-19T04:38:53.659Z,50.20
2017-12-19T04:41:21.120Z,50.13
2017-12-19T04:43:49.343Z,48.70
2017-12-19T04:46:16.799Z,45.23
2017-12-19T04:48:44.269Z,46.87
2017-12-19T04:51:11.734Z,45.40
2017-12-19T04:53:39.199Z,44.87
2017-12-19T04:56:06.691Z,42.63
2017-12-19T04:58:34.175Z,48.20
2017-12-19T05:01:01.672Z,44.63
2017-12-19T05:03:29.960Z,44.97
2017-12-19T05:05:57.551Z,46.77
2017-12-19T05:08:25.068Z,43.13
2017-12-19T05:10:53.399Z,47.77
2017-12-19T05:13:20.947Z,42.90
2017-12-19T05:15:48.410Z,41.97
2017-12-19T05:18:15.861Z,44.23
2017-12-19T05:20:43.330Z,42.93
2017-12-19T05:23:10.790Z,47.70
2017-12-19T05:25:40.194Z,44.53
2017-12-19T05:28:07.654Z,44.23
2017-12-19T05:30:35.315Z,50.10
2017-12-19T05:33:04.021Z,44.53
2017-12-19T05:35:31.516Z,40.07
2017-12-19T05:37:58.966Z,43.27
2017-12-19T05:40:26.442Z,42.37
2017-12-19T05:42:55.517Z,45.30
2017-12-19T05:45:23.078Z,45.43
2017-12-19T05:47:50.567Z,45.17
2017-12-19T05:50:18.047Z,46.50
2017-12-19T05:52:45.498Z,45.70
2017-12-19T05:55:12.954Z,44.60
2017-12-19T05:57:40.435Z,47.33
2017-12-19T06:00:08.662Z,50.30
2017-12-19T06:02:36.120Z,51.47
2017-12-19T06:05:03.646Z,48.83
2017-12-19T06:07:31.090Z,54.23
2017-12-19T06:09:59.307Z,55.60
2017-12-19T06:12:26.751Z,55.40
2017-12-19T06:14:54.212Z,61.10
2017-12-19T06:17:21.692Z,58.83
2017-12-19T06:19:49.154Z,56.93
2017-12-19T06:22:16.627Z,59.37
2017-12-19T06:24:44.851Z,54.77
2017-12-19T06:27:12.306Z,58.17
2017-12-19T06:29:39.761Z,63.47
2017-12-19T06:32:07.525Z,57.70
2017-12-19T06:34:35.084Z,59.50
2017-12-19T06:37:02.543Z,53.20
2017-12-19T06:39:29.993Z,54.87
2017-12-19T06:41:57.463Z,57.47
2017-12-19T06:44:24.909Z,60.53
2017-12-19T06:46:52.598Z,57.27
2017-12-19T06:49:20.053Z,57.60
2017-12-19T06:51:47.507Z,55.70
2017-12-19T06:54:14.957Z,52.60
2017-12-19T06:56:42.417Z,54.33
2017-12-19T06:59:10.773Z,56.20
2017-12-19T07:01:38.236Z,60.67
2017-12-19T07:04:05.684Z,58.00
2017-12-19T07:06:33.243Z,63.70
2017-12-19T07:09:00.773Z,60.00
2017-12-19T07:11:28.230Z,63.17
2017-12-19T07:13:55.678Z,57.60
2017-12-19T07:16:23.898Z,57.77
2017-12-19T07:18:51.347Z,57.20
2017-12-19T07:21:18.804Z,57.90
2017-12-19T07:23:46.259Z,65.33
2017-12-19T07:26:13.724Z,60.23
2017-12-19T07:28:41.173Z,57.93
2017-12-19T07:31:08.631Z,62.83
2017-12-19T07:33:36.098Z,62.67
2017-12-19T07:36:03.684Z,61.93
2017-12-19T07:38:31.927Z,56.10
2017-12-19T07:40:59.385Z,60.63
2017-12-19T07:43:26.839Z,58.00
2017-12-19T07:45:54.305Z,65.63
2017-12-19T07:48:21.771Z,60.93
2017-12-19T07:50:49.227Z,59.50
2017-12-19T07:53:16.700Z,60.03
2017-12-19T07:55:44.138Z,56.40
2017-12-19T07:58:11.813Z,55.07
2017-12-19T08:00:39.258Z,55.17
2017-12-19T08:03:06.728Z,58.10
2017-12-19T08:05:34.182Z,60.33
2017-12-19T08:08:01.634Z,59.57
2017-12-19T08:10:29.082Z,63.87
2017-12-19T08:12:56.542Z,55.73
2017-12-19T08:15:24.083Z,59.03
2017-12-19T08:17:51.538Z,56.47
2017-12-19T08:20:18.998Z,62.20
2017-12-19T08:22:46.468Z,61.63
2017-12-19T08:25:13.902Z,54.80
2017-12-19T08:27:41.364Z,58.07
2017-12-19T08:30:08.806Z,58.87
2017-12-19T08:32:36.285Z,59.77
2017-12-19T08:35:03.719Z,67.67
2017-12-19T08:37:31.175Z,59.50
2017-12-19T08:39:58.635Z,64.63
2017-12-19T08:42:26.087Z,56.50
2017-12-19T08:44:53.556Z,61.80
2017-12-19T08:47:21.039Z,63.30
2017-12-19T08:49:48.490Z,60.37
2017-12-19T08:52:15.947Z,56.10
2017-12-19T08:54:44.101Z,57.67
2017-12-19T08:57:11.558Z,62.73
2017-12-19T08:59:39.023Z,55.87
2017-12-19T09:02:06.475Z,65.47
2017-12-19T09:04:33.939Z,63.30
2017-12-19T09:07:01.402Z,55.17
2017-12-19T09:09:29.068Z,58.43
2017-12-19T09:11:56.571Z,61.10
2017-12-19T09:14:24.060Z,57.53
2017-12-19T09:16:51.483Z,60.43
2017-12-19T09:19:18.953Z,54.17
2017-12-19T09:21:46.411Z,62.23
2017-12-19T09:24:13.862Z,59.33
2017-12-19T09:26:41.974Z,61.53
2017-12-19T09:29:10.220Z,58.30
2017-12-19T09:31:37.696Z,59.37
2017-12-19T09:34:05.159Z,54.87
2017-12-19T09:36:32.619Z,60.90
2017-12-19T09:39:00.867Z,60.90
2017-12-19T09:41:28.331Z,61.00
2017-12-19T09:43:55.803Z,63.87
2017-12-19T09:46:23.241Z,58.30
2017-12-19T09:48:50.707Z,62.90
2017-12-19T09:51:18.146Z,61.53
2017-12-19T09:53:45.623Z,62.53
2017-12-19T09:56:13.080Z,60.97
2017-12-19T09:58:40.525Z,62.53
2017-12-19T10:01:07.982Z,60.50
2017-12-19T10:03:35.456Z,56.37
2017-12-19T10:06:02.914Z,57.63
2017-12-19T10:08:30.372Z,65.50
2017-12-19T10:10:58.622Z,61.40
2017-12-19T10:13:26.091Z,63.40
2017-12-19T10:15:53.544Z,60.70
2017-12-19T10:18:21.705Z,59.77
2017-12-19T10:20:49.284Z,57.50
2017-12-19T10:23:16.739Z,63.77
2017-12-19T10:25:44.190Z,58.90
2017-12-19T10:28:12.580Z,66.70
2017-12-19T10:30:40.041Z,63.47
2017-12-19T10:33:08.303Z,61.93
2017-12-19T10:35:35.806Z,61.13
2017-12-19T10:38:03.227Z,65.87
2017-12-19T10:40:31.467Z,58.50
2017-12-19T10:42:58.949Z,65.53
2017-12-19T10:45:26.414Z,58.33
2017-12-19T10:47:54.704Z,57.17
2017-12-19T10:50:22.491Z,57.27
2017-12-19T10:52:49.967Z,63.60
2017-12-19T10:55:17.440Z,56.40
2017-12-19T10:57:44.915Z,58.10
2017-12-19T11:00:13.163Z,58.23
2017-12-19T11:02:40.619Z,60.20
2017-12-19T11:05:08.082Z,59.47
2017-12-19T11:07:35.553Z,60.23
2017-12-19T11:10:03.019Z,62.17
2017-12-19T11:12:31.275Z,59.90
2017-12-19T11:14:58.732Z,63.00
2017-12-19T11:17:26.199Z,61.73
2017-12-19T11:19:53.655Z,61.90
2017-12-19T11:22:21.120Z,58.70
2017-12-19T11:24:49.339Z,65.03
2017-12-19T11:27:16.807Z,59.07
2017-12-19T11:29:44.283Z,58.00
2017-12-19T11:32:11.741Z,59.93
2017-12-19T11:34:39.204Z,59.63
2017-12-19T11:37:06.703Z,57.63
2017-12-19T11:39:34.207Z,56.00
2017-12-19T11:42:01.711Z,51.60
2017-12-19T11:44:29.159Z,55.73
2017-12-19T11:46:56.619Z,62.67
2017-12-19T11:49:24.078Z,46.93
2017-12-19T11:51:51.554Z,41.80
2017-12-19T11:54:19.052Z,45.53
2017-12-19T11:56:46.451Z,46.73
2017-12-19T11:59:13.910Z,41.77
2017-12-19T12:01:41.381Z,44.40
2017-12-19T12:04:08.834Z,45.33
2017-12-19T12:06:36.306Z,36.47
2017-12-19T12:09:03.755Z,29.40
2017-12-19T12:11:31.227Z,38.27
2017-12-19T12:13:58.695Z,36.00
2017-12-19T12:16:26.161Z,32.87
2017-12-19T12:18:53.608Z,37.83
2017-12-19T12:21:21.072Z,37.37
2017-12-19T12:23:48.530Z,36.50
2017-12-19T12:26:15.987Z,35.43
2017-12-19T12:28:43.446Z,38.70
2017-12-19T12:31:10.903Z,37.17
2017-12-19T12:33:38.361Z,41.97
2017-12-19T12:36:05.815Z,48.40
2017-12-19T12:38:33.278Z,44.33
2017-12-19T12:41:00.735Z,44.83
2017-12-19T12:43:28.955Z,50.80
2017-12-19T12:45:56.417Z,41.33
2017-12-19T12:48:23.892Z,39.20
2017-12-19T12:50:51.342Z,37.17
2017-12-19T12:53:18.794Z,35.20
2017-12-19T12:55:46.499Z,34.73
2017-12-19T12:58:14.719Z,35.73
2017-12-19T13:00:42.176Z,34.23
2017-12-19T13:03:09.644Z,38.10
2017-12-19T13:05:37.107Z,45.20
2017-12-19T13:08:04.723Z,44.47
2017-12-19T13:10:32.180Z,43.20
2017-12-19T13:12:59.640Z,40.90
2017-12-19T13:15:27.100Z,42.97
2017-12-19T13:17:54.557Z,39.20
2017-12-19T13:20:21.999Z,45.77
2017-12-19T13:22:49.454Z,41.73
2017-12-19T13:25:16.925Z,47.70
2017-12-19T13:27:44.366Z,43.07
2017-12-19T13:30:12.666Z,44.07
2017-12-19T13:32:40.118Z,44.63
2017-12-19T13:35:07.579Z,41.47
2017-12-19T13:37:35.036Z,46.70
2017-12-19T13:40:02.503Z,47.37
2017-12-19T13:42:29.946Z,44.30
2017-12-19T13:44:57.407Z,47.50
2017-12-19T13:47:24.848Z,45.50
2017-12-19T13:49:52.317Z,40.33
2017-12-19T13:52:19.783Z,43.57
2017-12-19T13:54:47.246Z,43.37
2017-12-19T13:57:14.705Z,35.70
2017-12-19T13:59:42.170Z,39.10
2017-12-19T14:02:09.637Z,39.67
2017-12-19T14:04:37.098Z,39.37
2017-12-19T14:07:04.554Z,38.70
2017-12-19T14:09:32.013Z,41.27
2017-12-19T14:12:00.251Z,35.30
2017-12-19T14:14:27.714Z,43.27
2017-12-19T14:16:55.175Z,41.67
2017-12-19T14:19:22.630Z,36.57
2017-12-19T14:21:50.098Z,40.07
2017-12-19T14:24:17.542Z,36.60
2017-12-19T14:26:45.012Z,37.57
2017-12-19T14:29:12.459Z,37.17
2017-12-19T14:31:40.743Z,38.70
2017-12-19T14:34:08.198Z,39.30
2017-12-19T14:36:36.023Z,39.60
2017-12-19T14:39:03.481Z,39.90
2017-12-19T14:41:30.952Z,39.20
2017-12-19T14:43:58.416Z,39.07
2017-12-19T14:46:25.888Z,47.63
2017-12-19T14:48:53.355Z,41.00
2017-12-19T14:51:20.855Z,38.50
2017-12-19T14:53:48.311Z,43.93
2017-12-19T14:56:15.774Z,43.43
2017-12-19T14:58:43.235Z,38.87
2017-12-19T15:01:11.457Z,43.87
2017-12-19T15:03:39.695Z,49.43
2017-12-19T15:06:07.149Z,46.97
2017-12-19T15:08:34.606Z,48.70
2017-12-19T15:11:02.098Z,50.93
2017-12-19T15:13:29.541Z,50.13
2017-12-19T15:15:56.996Z,50.50
2017-12-19T15:18:24.454Z,48.00
2017-12-19T15:20:51.923Z,49.07
2017-12-19T15:23:19.380Z,48.23
2017-12-19T15:25:46.836Z,46.70
2017-12-19T15:28:14.311Z,52.63
2017-12-19T15:30:41.763Z,45.87
2017-12-19T15:33:09.229Z,48.07
2017-12-19T15:35:36.686Z,53.50
2017-12-19T15:38:04.136Z,44.47
2017-12-19T15:40:32.368Z,48.63
2017-12-19T15:43:00.600Z,42.43
2017-12-19T15:45:28.920Z,49.47
2017-12-19T15:47:56.393Z,52.17
2017-12-19T15:50:23.838Z,48.63
2017-12-19T15:52:52.069Z,50.50
2017-12-19T15:55:19.608Z,52.40
2017-12-19T15:57:49.162Z,45.47
2017-12-19T16:00:16.856Z,49.20
2017-12-19T16:02:45.179Z,48.33
2017-12-19T16:05:12.698Z,50.80
2017-12-19T16:07:40.951Z,51.77
2017-12-19T16:10:08.410Z,50.90
2017-12-19T16:12:35.870Z,48.80
2017-12-19T16:15:04.128Z,51.53
2017-12-19T16:17:31.602Z,48.87
2017-12-19T16:19:59.073Z,52.07
2017-12-19T16:22:27.286Z,49.43
2017-12-19T16:24:54.774Z,48.13
2017-12-19T16:27:22.235Z,53.93
2017-12-19T16:29:49.743Z,49.70
2017-12-19T16:32:17.171Z,48.10
2017-12-19T16:34:45.408Z,43.27
2017-12-19T16:37:12.903Z,51.00
2017-12-19T16:39:41.352Z,45.43
2017-12-19T16:42:08.824Z,48.00
2017-12-19T16:44:36.282Z,48.87
2017-12-19T16:47:03.751Z,51.60
2017-12-19T16:49:32.007Z,49.87
2017-12-19T16:51:59.474Z,50.70
2017-12-19T16:54:27.698Z,51.87
2017-12-19T16:56:55.201Z,51.87
2017-12-19T16:59:22.669Z,55.33
2017-12-19T17:01:50.916Z,49.23
2017-12-19T17:04:19.169Z,50.87
2017-12-19T17:06:46.629Z,54.20
2017-12-19T17:09:14.082Z,50.67
2017-12-19T17:11:41.593Z,51.83
2017-12-19T17:14:09.835Z,58.57
2017-12-19T17:16:37.333Z,52.90
2017-12-19T17:19:04.861Z,54.43
2017-12-19T17:21:32.359Z,61.80
2017-12-19T17:23:59.815Z,51.50
2017-12-19T17:26:27.314Z,55.13
2017-12-19T17:28:54.826Z,52.23
2017-12-19T17:31:22.280Z,50.03
2017-12-19T17:33:49.745Z,56.30
2017-12-19T17:36:17.219Z,48.47
2017-12-19T17:38:44.713Z,45.97
2017-12-19T17:41:12.175Z,47.73
2017-12-19T17:43:39.666Z,44.10
2017-12-19T17:46:07.347Z,47.27
2017-12-19T17:48:34.803Z,47.37
2017-12-19T17:51:02.266Z,48.80
2017-12-19T17:53:29.954Z,53.37
2017-12-19T17:55:57.464Z,47.33
2017-12-19T17:58:24.902Z,55.73
2017-12-19T18:00:52.418Z,61.37
2017-12-19T18:03:19.867Z,59.43
2017-12-19T18:05:47.328Z,55.10
2017-12-19T18:08:14.796Z,55.40
2017-12-19T18:10:42.271Z,62.30
2017-12-19T18:13:09.774Z,52.80
2017-12-19T18:15:38.506Z,48.73
2017-12-19T18:18:05.963Z,55.73
2017-12-19T18:20:33.425Z,48.93
2017-12-19T18:23:01.646Z,53.53
2017-12-19T18:25:29.101Z,50.63
2017-12-19T18:27:56.567Z,53.93
2017-12-19T18:30:24.073Z,49.53
2017-12-19T18:32:52.345Z,49.30
2017-12-19T18:35:20.575Z,50.50
2017-12-19T18:37:48.055Z,48.07
2017-12-19T18:40:15.554Z,50.30
2017-12-19T18:42:43.064Z,52.43
2017-12-19T18:45:10.622Z,50.83
2017-12-19T18:47:38.086Z,49.47
2017-12-19T18:50:05.593Z,43.17
2017-12-19T18:52:33.106Z,52.13
2017-12-19T18:55:00.552Z,50.50
2017-12-19T18:57:28.024Z,51.90
2017-12-19T18:59:55.529Z,65.70
2017-12-19T19:02:23.647Z,167.50
2017-12-19T19:04:51.226Z,243.47
2017-12-19T19:07:18.763Z,108.93
2017-12-19T19:09:46.329Z,146.13
2017-12-19T19:12:13.854Z,212.30
2017-12-19T19:14:41.303Z,69.73
2017-12-19T19:17:08.873Z,109.27
2017-12-19T19:19:36.482Z,182.73
2017-12-19T19:22:04.019Z,91.77
2017-12-19T19:24:31.582Z,110.33
2017-12-19T19:26:59.174Z,120.10
2017-12-19T19:29:26.627Z,83.43
2017-12-19T19:31:54.887Z,79.73
2017-12-19T19:34:23.107Z,88.07
2017-12-19T19:36:51.323Z,61.13
2017-12-19T19:39:20.406Z,60.73
2017-12-19T19:41:48.307Z,63.70
2017-12-19T19:44:15.804Z,54.83
2017-12-19T19:46:43.583Z,52.83
2017-12-19T19:49:11.322Z,53.73
2017-12-19T19:51:39.925Z,52.03
2017-12-19T19:54:07.518Z,51.60
2017-12-19T19:56:35.794Z,49.93
2017-12-19T19:59:03.419Z,54.73
2017-12-19T20:01:30.932Z,48.00
2017-12-19T20:03:59.210Z,63.40
2017-12-19T20:06:26.718Z,49.53
2017-12-19T20:08:54.221Z,48.23
2017-12-19T20:11:21.786Z,48.43
2017-12-19T20:13:50.038Z,57.20
2017-12-19T20:16:18.302Z,53.67
2017-12-19T20:18:46.581Z,51.50
2017-12-19T20:21:14.862Z,55.27
2017-12-19T20:23:43.202Z,60.50
2017-12-19T20:26:10.695Z,55.67
2017-12-19T20:28:40.222Z,60.80
2017-12-19T20:31:07.794Z,58.97
2017-12-19T20:33:36.456Z,57.07
2017-12-19T20:36:04.718Z,53.70
2017-12-19T20:38:33.071Z,60.27
2017-12-19T20:41:00.569Z,62.57
2017-12-19T20:43:28.078Z,58.97
2017-12-19T20:45:55.601Z,53.90
2017-12-19T20:48:23.861Z,59.37
2017-12-19T20:50:51.363Z,63.37
2017-12-19T20:53:18.849Z,64.87
2017-12-19T20:55:46.352Z,66.63
2017-12-19T20:58:13.846Z,69.87
2017-12-19T21:00:41.630Z,60.83
2017-12-19T21:03:09.265Z,63.80
2017-12-19T21:05:36.892Z,69.07
2017-12-19T21:08:04.475Z,59.43
2017-12-19T21:10:31.956Z,58.93
2017-12-19T21:13:00.267Z,57.00
2017-12-19T21:18:09.806Z,56.83
2017-12-19T21:20:37.404Z,58.90
2017-12-19T21:23:04.922Z,54.80
2017-12-19T21:25:32.494Z,47.80
2017-12-19T21:28:00.140Z,50.50
2017-12-19T21:30:27.740Z,52.70
2017-12-19T21:32:55.236Z,54.87
2017-12-19T21:35:23.575Z,52.27
2017-12-19T21:37:51.050Z,46.20
2017-12-19T21:40:18.550Z,50.77
2017-12-19T21:42:46.067Z,51.87
2017-12-19T21:45:14.459Z,51.27
2017-12-19T21:47:42.074Z,50.00
2017-12-19T21:50:09.543Z,53.60
2017-12-19T21:52:38.848Z,53.57
2017-12-19T21:57:47.746Z,45.27
2017-12-19T22:00:16.198Z,45.20
2017-12-19T22:02:44.486Z,46.00
2017-12-19T22:05:12.816Z,46.40
2017-12-19T22:07:40.322Z,51.30
2017-12-19T22:10:08.586Z,49.47
2017-12-19T22:12:36.174Z,51.00
2017-12-19T22:15:04.651Z,49.50
2017-12-19T22:17:32.124Z,50.03
2017-12-19T22:19:59.763Z,52.47
2017-12-19T22:22:27.347Z,51.07
2017-12-19T22:24:54.905Z,54.57
2017-12-19T22:27:22.488Z,52.63
2017-12-19T22:29:50.314Z,54.03
2017-12-19T22:32:17.827Z,57.20
2017-12-19T22:34:45.276Z,57.80
2017-12-19T22:37:12.735Z,51.70
2017-12-19T22:39:40.260Z,55.97
2017-12-19T22:42:07.714Z,52.07
2017-12-19T22:44:35.319Z,53.20
2017-12-19T22:47:02.895Z,52.57
2017-12-19T22:49:30.421Z,51.53
2017-12-19T22:51:57.936Z,53.73
2017-12-19T22:54:25.441Z,44.83
2017-12-19T22:56:52.890Z,47.37
2017-12-19T22:59:20.416Z,55.87
2017-12-19T23:01:47.907Z,50.43
2017-12-19T23:04:15.592Z,50.07
2017-12-19T23:06:44.466Z,47.77
2017-12-19T23:09:11.965Z,46.50
2017-12-19T23:11:39.414Z,46.23
2017-12-19T23:14:06.989Z,53.57
2017-12-19T23:16:34.492Z,51.70
2017-12-19T23:19:01.942Z,53.40
2017-12-19T23:21:29.406Z,48.60
2017-12-19T23:23:56.863Z,48.37
2017-12-19T23:26:24.306Z,49.83
2017-12-19T23:28:51.810Z,50.67
2017-12-19T23:31:19.254Z,50.40
2017-12-19T23:33:46.711Z,47.00
2017-12-19T23:36:14.162Z,50.27
2017-12-19T23:38:42.396Z,52.07
2017-12-19T23:41:09.895Z,50.73
2017-12-19T23:43:38.170Z,58.07
2017-12-19T23:46:06.379Z,53.33
2017-12-19T23:48:33.888Z,53.70
2017-12-19T23:51:01.379Z,49.03
2017-12-19T23:53:28.815Z,53.73
2017-12-19T23:55:57.031Z,51.20
2017-12-19T23:58:24.495Z,57.67
